EZY10LG LPPT-EHAM
Flight info
| Callsign | EZY10LG |
|---|---|
| Flight time | N/A |
| Altitude | 38000 |
| Route | IXIDA DCT PINOX DCT RIVRO DCT TOSDI DCT ZMR DCT NUBLO DCT RONSI DCT DELOG DCT FUJTI DCT OSGES DCT BEVAV DCT AKIKI UN867 AVANT/N0439F390 DCT BRAIN M197 REDFA |
| Aircraft | A20N/M-SDE2E3FGHIRWXY/LB1 |
Departure
| Time | 2026-05-07 13:21 |
|---|---|
| Airport | Lisbon Humberto Delgado Airport (LPPT) |
Arrival
| Time | N/A |
|---|---|
| Airport | Amsterdam Airport Schiphol (EHAM) |
| Time | Latitude | Longitude | Altitude | Speed | Heading |
|---|---|---|---|---|---|
| 2026-05-07 12:54 | 38.76981 | -9.13095 | 352 ft | 0 kts | 72° |
| 2026-05-07 13:06 | 38.76980 | -9.13097 | 347 ft | 2 kts | 72° |
| 2026-05-07 13:06 | 38.76975 | -9.13121 | 355 ft | 3 kts | 84° |
| 2026-05-07 13:06 | 38.76977 | -9.13149 | 354 ft | 3 kts | 116° |
| 2026-05-07 13:06 | 38.76991 | -9.13170 | 356 ft | 3 kts | 154° |
| 2026-05-07 13:07 | 38.76995 | -9.13173 | 355 ft | 0 kts | 162° |
| 2026-05-07 13:13 | 38.76987 | -9.13169 | 354 ft | 3 kts | 162° |
| 2026-05-07 13:13 | 38.76956 | -9.13160 | 347 ft | 6 kts | 168° |
| 2026-05-07 13:14 | 38.76903 | -9.13146 | 347 ft | 9 kts | 168° |
| 2026-05-07 13:14 | 38.76829 | -9.13126 | 349 ft | 12 kts | 168° |
| 2026-05-07 13:14 | 38.76735 | -9.13103 | 349 ft | 15 kts | 167° |
| 2026-05-07 13:14 | 38.76627 | -9.13071 | 347 ft | 17 kts | 167° |
| 2026-05-07 13:15 | 38.76530 | -9.13098 | 349 ft | 15 kts | 252° |
| 2026-05-07 13:15 | 38.76589 | -9.13179 | 349 ft | 15 kts | 343° |
| 2026-05-07 13:15 | 38.76696 | -9.13202 | 347 ft | 17 kts | 348° |
| 2026-05-07 13:15 | 38.76751 | -9.13293 | 347 ft | 14 kts | 283° |
| 2026-05-07 13:16 | 38.76719 | -9.13406 | 354 ft | 15 kts | 220° |
| 2026-05-07 13:16 | 38.76652 | -9.13505 | 349 ft | 16 kts | 255° |
| 2026-05-07 13:16 | 38.76628 | -9.13648 | 350 ft | 17 kts | 258° |
| 2026-05-07 13:16 | 38.76604 | -9.13806 | 346 ft | 19 kts | 259° |
| 2026-05-07 13:17 | 38.76574 | -9.13973 | 351 ft | 20 kts | 253° |
| 2026-05-07 13:17 | 38.76500 | -9.14121 | 354 ft | 20 kts | 250° |
| 2026-05-07 13:17 | 38.76524 | -9.14266 | 347 ft | 11 kts | 295° |
| 2026-05-07 13:17 | 38.76536 | -9.14300 | 346 ft | 0 kts | 294° |
| 2026-05-07 13:19 | 38.76545 | -9.14326 | 349 ft | 7 kts | 294° |
| 2026-05-07 13:19 | 38.76581 | -9.14407 | 335 ft | 13 kts | 315° |
| 2026-05-07 13:19 | 38.76628 | -9.14398 | 337 ft | 6 kts | 26° |
| 2026-05-07 13:20 | 38.76636 | -9.14394 | 334 ft | 0 kts | 22° |
| 2026-05-07 13:20 | 38.76752 | -9.14334 | 339 ft | 51 kts | 21° |
| 2026-05-07 13:21 | 38.77297 | -9.14076 | 351 ft | 113 kts | 25° |
| 2026-05-07 13:21 | 38.78183 | -9.13578 | 353 ft | 159 kts | 20° |
| 2026-05-07 13:21 | 38.79222 | -9.13031 | 768 ft | 165 kts | 20° |
| 2026-05-07 13:21 | 38.80278 | -9.12448 | 1429 ft | 162 kts | 21° |
| 2026-05-07 13:22 | 38.81296 | -9.11795 | 2031 ft | 164 kts | 22° |
| 2026-05-07 13:22 | 38.82341 | -9.11061 | 2461 ft | 180 kts | 25° |
| 2026-05-07 13:22 | 38.83480 | -9.10190 | 2834 ft | 202 kts | 28° |
| 2026-05-07 13:22 | 38.84743 | -9.09165 | 3209 ft | 229 kts | 29° |
| 2026-05-07 13:23 | 38.86185 | -9.08037 | 3640 ft | 255 kts | 29° |
| 2026-05-07 13:23 | 38.87778 | -9.06850 | 4325 ft | 270 kts | 29° |
| 2026-05-07 13:23 | 38.89407 | -9.05598 | 5246 ft | 277 kts | 34° |
| 2026-05-07 13:23 | 38.90903 | -9.04006 | 6195 ft | 280 kts | 44° |
| 2026-05-07 13:24 | 38.92341 | -9.02318 | 7187 ft | 283 kts | 44° |
| 2026-05-07 13:24 | 38.93807 | -9.00608 | 8093 ft | 288 kts | 44° |
| 2026-05-07 13:24 | 38.95306 | -8.98860 | 9041 ft | 292 kts | 43° |
| 2026-05-07 13:24 | 38.96825 | -8.97091 | 9633 ft | 297 kts | 43° |
| 2026-05-07 13:25 | 38.98369 | -8.95291 | 9856 ft | 299 kts | 43° |
| 2026-05-07 13:25 | 38.99906 | -8.93498 | 9924 ft | 299 kts | 43° |
| 2026-05-07 13:25 | 39.01431 | -8.91717 | 9934 ft | 300 kts | 44° |
| 2026-05-07 13:25 | 39.03057 | -8.89813 | 9928 ft | 333 kts | 43° |
| 2026-05-07 13:26 | 39.04816 | -8.87752 | 9920 ft | 346 kts | 43° |
| 2026-05-07 13:26 | 39.06590 | -8.85678 | 9917 ft | 343 kts | 43° |
| 2026-05-07 13:26 | 39.08319 | -8.83655 | 9914 ft | 328 kts | 43° |
| 2026-05-07 13:26 | 39.09964 | -8.81730 | 9910 ft | 311 kts | 43° |
| 2026-05-07 13:27 | 39.11521 | -8.79905 | 9906 ft | 295 kts | 44° |
| 2026-05-07 13:27 | 39.13056 | -8.78099 | 9903 ft | 312 kts | 44° |
| 2026-05-07 13:27 | 39.14744 | -8.76108 | 9895 ft | 341 kts | 43° |
| 2026-05-07 13:27 | 39.16480 | -8.74057 | 9889 ft | 345 kts | 45° |
| 2026-05-07 13:28 | 39.18072 | -8.71825 | 9888 ft | 330 kts | 50° |
| 2026-05-07 13:28 | 39.19547 | -8.69656 | 9886 ft | 313 kts | 50° |
| 2026-05-07 13:28 | 39.20955 | -8.67599 | 9886 ft | 297 kts | 50° |
| 2026-05-07 13:28 | 39.22316 | -8.65608 | 9891 ft | 297 kts | 50° |
| 2026-05-07 13:29 | 39.23706 | -8.63569 | 9883 ft | 324 kts | 50° |
| 2026-05-07 13:29 | 39.25252 | -8.61296 | 9883 ft | 344 kts | 50° |
| 2026-05-07 13:29 | 39.26837 | -8.58971 | 9880 ft | 339 kts | 50° |
| 2026-05-07 13:29 | 39.28358 | -8.56745 | 9881 ft | 322 kts | 50° |
| 2026-05-07 13:30 | 39.29806 | -8.54620 | 9880 ft | 306 kts | 50° |
| 2026-05-07 13:30 | 39.31183 | -8.52598 | 9796 ft | 299 kts | 50° |
| 2026-05-07 13:30 | 39.32545 | -8.50591 | 9914 ft | 301 kts | 50° |
| 2026-05-07 13:30 | 39.33951 | -8.48516 | 10118 ft | 321 kts | 50° |
| 2026-05-07 13:31 | 39.35457 | -8.46288 | 10438 ft | 342 kts | 50° |
| 2026-05-07 13:31 | 39.37042 | -8.43948 | 11196 ft | 349 kts | 50° |
| 2026-05-07 13:31 | 39.38660 | -8.41565 | 11941 ft | 355 kts | 49° |
| 2026-05-07 13:31 | 39.40285 | -8.39165 | 12859 ft | 355 kts | 49° |
| 2026-05-07 13:32 | 39.41926 | -8.36738 | 13676 ft | 361 kts | 49° |
| 2026-05-07 13:32 | 39.43592 | -8.34273 | 14394 ft | 364 kts | 49° |
| 2026-05-07 13:32 | 39.45257 | -8.31807 | 15122 ft | 368 kts | 48° |
| 2026-05-07 13:32 | 39.46962 | -8.29280 | 15793 ft | 372 kts | 48° |
| 2026-05-07 13:33 | 39.48670 | -8.26744 | 16550 ft | 375 kts | 47° |
| 2026-05-07 13:33 | 39.50396 | -8.24180 | 17248 ft | 379 kts | 47° |
| 2026-05-07 13:33 | 39.52113 | -8.21630 | 17975 ft | 383 kts | 47° |
| 2026-05-07 13:33 | 39.53875 | -8.19010 | 18560 ft | 387 kts | 47° |
| 2026-05-07 13:34 | 39.55645 | -8.16378 | 19180 ft | 390 kts | 47° |
| 2026-05-07 13:34 | 39.59247 | -8.11012 | 20354 ft | 398 kts | 46° |
| 2026-05-07 13:34 | 39.61045 | -8.08329 | 20916 ft | 402 kts | 46° |
| 2026-05-07 13:35 | 39.62885 | -8.05582 | 21479 ft | 406 kts | 45° |
| 2026-05-07 13:35 | 39.64749 | -8.02798 | 22051 ft | 409 kts | 45° |
| 2026-05-07 13:35 | 39.66630 | -8.00006 | 22583 ft | 414 kts | 44° |
| 2026-05-07 13:35 | 39.68578 | -7.97241 | 23157 ft | 416 kts | 43° |
| 2026-05-07 13:36 | 39.70561 | -7.94475 | 23643 ft | 420 kts | 42° |
| 2026-05-07 13:36 | 39.72561 | -7.91685 | 24089 ft | 424 kts | 42° |
| 2026-05-07 13:36 | 39.74580 | -7.88854 | 24532 ft | 428 kts | 42° |
| 2026-05-07 13:36 | 39.76605 | -7.86001 | 24982 ft | 431 kts | 43° |
| 2026-05-07 13:37 | 39.78639 | -7.83126 | 25445 ft | 434 kts | 43° |
| 2026-05-07 13:37 | 39.80662 | -7.80260 | 25859 ft | 437 kts | 42° |
| 2026-05-07 13:37 | 39.82731 | -7.77326 | 26254 ft | 441 kts | 42° |
| 2026-05-07 13:37 | 39.84810 | -7.74375 | 26676 ft | 444 kts | 42° |
| 2026-05-07 13:38 | 39.86904 | -7.71400 | 27025 ft | 448 kts | 42° |
| 2026-05-07 13:38 | 39.89015 | -7.68399 | 27399 ft | 451 kts | 42° |
| 2026-05-07 13:38 | 39.91143 | -7.65370 | 27775 ft | 454 kts | 42° |
| 2026-05-07 13:38 | 39.93281 | -7.62323 | 28132 ft | 457 kts | 42° |
| 2026-05-07 13:39 | 39.95431 | -7.59256 | 28525 ft | 460 kts | 41° |
| 2026-05-07 13:39 | 39.97589 | -7.56173 | 28949 ft | 461 kts | 41° |
| 2026-05-07 13:39 | 39.99761 | -7.53070 | 29258 ft | 465 kts | 41° |
| 2026-05-07 13:39 | 40.01948 | -7.49943 | 29638 ft | 467 kts | 41° |
| 2026-05-07 13:40 | 40.04141 | -7.46802 | 29976 ft | 469 kts | 41° |
| 2026-05-07 13:40 | 40.06346 | -7.43643 | 30224 ft | 472 kts | 41° |
| 2026-05-07 13:40 | 40.08566 | -7.40458 | 30526 ft | 474 kts | 41° |
| 2026-05-07 13:40 | 40.10787 | -7.37267 | 30794 ft | 477 kts | 41° |
| 2026-05-07 13:41 | 40.13026 | -7.34048 | 31092 ft | 479 kts | 41° |
| 2026-05-07 13:41 | 40.15244 | -7.30853 | 31442 ft | 479 kts | 41° |
| 2026-05-07 13:41 | 40.17516 | -7.27579 | 31812 ft | 479 kts | 41° |
| 2026-05-07 13:41 | 40.19753 | -7.24352 | 32167 ft | 480 kts | 41° |
| 2026-05-07 13:42 | 40.21964 | -7.21158 | 32552 ft | 479 kts | 40° |
| 2026-05-07 13:42 | 40.24196 | -7.17926 | 32991 ft | 477 kts | 40° |
| 2026-05-07 13:42 | 40.26424 | -7.14703 | 33391 ft | 476 kts | 40° |
| 2026-05-07 13:42 | 40.28644 | -7.11506 | 33801 ft | 473 kts | 38° |
| 2026-05-07 13:43 | 40.31022 | -7.08595 | 34040 ft | 468 kts | 33° |
| 2026-05-07 13:43 | 40.33476 | -7.05777 | 34294 ft | 468 kts | 33° |
| 2026-05-07 13:43 | 40.35925 | -7.02954 | 34545 ft | 469 kts | 33° |
| 2026-05-07 13:43 | 40.38374 | -7.00122 | 34788 ft | 469 kts | 34° |
| 2026-05-07 13:44 | 40.40827 | -6.97281 | 35035 ft | 470 kts | 34° |
| 2026-05-07 13:44 | 40.43278 | -6.94437 | 35260 ft | 470 kts | 34° |
| 2026-05-07 13:44 | 40.45729 | -6.91591 | 35496 ft | 471 kts | 34° |
| 2026-05-07 13:44 | 40.48183 | -6.88738 | 35723 ft | 471 kts | 34° |
| 2026-05-07 13:45 | 40.50636 | -6.85884 | 35931 ft | 472 kts | 34° |
| 2026-05-07 13:45 | 40.53095 | -6.83019 | 36194 ft | 471 kts | 35° |
| 2026-05-07 13:45 | 40.55542 | -6.80163 | 36487 ft | 469 kts | 35° |
| 2026-05-07 13:45 | 40.57985 | -6.77312 | 36680 ft | 470 kts | 35° |
| 2026-05-07 13:46 | 40.60427 | -6.74459 | 36867 ft | 470 kts | 36° |
| 2026-05-07 13:46 | 40.62845 | -6.71630 | 37050 ft | 471 kts | 36° |
| 2026-05-07 13:46 | 40.65291 | -6.68765 | 37229 ft | 471 kts | 36° |
| 2026-05-07 13:46 | 40.67747 | -6.65886 | 37401 ft | 471 kts | 36° |
| 2026-05-07 13:47 | 40.70200 | -6.63006 | 37579 ft | 472 kts | 36° |
| 2026-05-07 13:47 | 40.72648 | -6.60131 | 37767 ft | 472 kts | 36° |
| 2026-05-07 13:47 | 40.75097 | -6.57252 | 37859 ft | 471 kts | 37° |
| 2026-05-07 13:48 | 40.79963 | -6.51517 | 37871 ft | 469 kts | 37° |
| 2026-05-07 13:48 | 40.84841 | -6.45760 | 37881 ft | 468 kts | 37° |
| 2026-05-07 13:49 | 40.89662 | -6.40054 | 37867 ft | 464 kts | 37° |
| 2026-05-07 13:49 | 40.94485 | -6.34339 | 37870 ft | 466 kts | 37° |
| 2026-05-07 13:50 | 40.99263 | -6.28662 | 37874 ft | 463 kts | 37° |
| 2026-05-07 13:50 | 41.04034 | -6.22982 | 37873 ft | 464 kts | 37° |
| 2026-05-07 13:51 | 41.08850 | -6.17238 | 37873 ft | 464 kts | 37° |
| 2026-05-07 13:51 | 41.13648 | -6.11503 | 37873 ft | 464 kts | 37° |
| 2026-05-07 13:52 | 41.18445 | -6.05759 | 37877 ft | 464 kts | 38° |
| 2026-05-07 13:52 | 41.23242 | -6.00005 | 37880 ft | 464 kts | 38° |
| 2026-05-07 13:53 | 41.28029 | -5.94246 | 37877 ft | 464 kts | 39° |
| 2026-05-07 13:53 | 41.32812 | -5.88479 | 37878 ft | 463 kts | 39° |
| 2026-05-07 13:54 | 41.37556 | -5.82750 | 37877 ft | 463 kts | 39° |
| 2026-05-07 13:54 | 41.42322 | -5.76982 | 37885 ft | 463 kts | 39° |
| 2026-05-07 13:55 | 41.46317 | -5.72139 | 37875 ft | 463 kts | 39° |
| 2026-05-07 13:55 | 41.51162 | -5.66569 | 37872 ft | 460 kts | 33° |
| 2026-05-07 13:56 | 41.56589 | -5.62118 | 37875 ft | 456 kts | 23° |
| 2026-05-07 13:56 | 41.62386 | -5.58747 | 37879 ft | 454 kts | 20° |
| 2026-05-07 13:57 | 41.68220 | -5.55434 | 37865 ft | 455 kts | 20° |
| 2026-05-07 13:57 | 41.74045 | -5.52129 | 37864 ft | 455 kts | 20° |
| 2026-05-07 13:58 | 41.79886 | -5.48818 | 37872 ft | 455 kts | 20° |
| 2026-05-07 13:58 | 41.85683 | -5.45528 | 37872 ft | 456 kts | 20° |
| 2026-05-07 13:59 | 41.91523 | -5.42207 | 37872 ft | 456 kts | 20° |
| 2026-05-07 13:59 | 41.97377 | -5.38871 | 37876 ft | 457 kts | 20° |
| 2026-05-07 14:00 | 42.03232 | -5.35527 | 37884 ft | 457 kts | 20° |
| 2026-05-07 14:00 | 42.09061 | -5.32189 | 37880 ft | 459 kts | 21° |
| 2026-05-07 14:01 | 42.14901 | -5.28840 | 37883 ft | 459 kts | 21° |
| 2026-05-07 14:01 | 42.20799 | -5.25451 | 37889 ft | 460 kts | 21° |
| 2026-05-07 14:02 | 42.26695 | -5.22056 | 37889 ft | 460 kts | 21° |
| 2026-05-07 14:02 | 42.32561 | -5.18673 | 37899 ft | 461 kts | 21° |
| 2026-05-07 14:03 | 42.38473 | -5.15256 | 37897 ft | 462 kts | 21° |
| 2026-05-07 14:03 | 42.44386 | -5.11830 | 37900 ft | 462 kts | 21° |
| 2026-05-07 14:04 | 42.50276 | -5.08411 | 37898 ft | 460 kts | 21° |
| 2026-05-07 14:04 | 42.56177 | -5.04980 | 37889 ft | 461 kts | 21° |
| 2026-05-07 14:05 | 42.62066 | -5.01548 | 37887 ft | 461 kts | 21° |
| 2026-05-07 14:05 | 42.67952 | -4.98110 | 37889 ft | 461 kts | 21° |
| 2026-05-07 14:06 | 42.73842 | -4.94662 | 37876 ft | 461 kts | 21° |
| 2026-05-07 14:06 | 42.79712 | -4.91220 | 37866 ft | 462 kts | 21° |
| 2026-05-07 14:07 | 42.85612 | -4.87751 | 37871 ft | 462 kts | 21° |
| 2026-05-07 14:07 | 42.91519 | -4.84272 | 37873 ft | 463 kts | 21° |
| 2026-05-07 14:08 | 42.97434 | -4.80782 | 37877 ft | 464 kts | 21° |
| 2026-05-07 14:08 | 43.03367 | -4.77273 | 37885 ft | 465 kts | 21° |
| 2026-05-07 14:09 | 43.09313 | -4.73748 | 37892 ft | 465 kts | 21° |
| 2026-05-07 14:09 | 43.15268 | -4.70211 | 37892 ft | 467 kts | 21° |
| 2026-05-07 14:10 | 43.21188 | -4.66687 | 37903 ft | 467 kts | 21° |
| 2026-05-07 14:10 | 43.27123 | -4.63146 | 37898 ft | 465 kts | 21° |
| 2026-05-07 14:11 | 43.33079 | -4.59586 | 37896 ft | 466 kts | 21° |
| 2026-05-07 14:11 | 43.39035 | -4.56019 | 37897 ft | 468 kts | 22° |
| 2026-05-07 14:12 | 43.44993 | -4.52443 | 37900 ft | 470 kts | 22° |
| 2026-05-07 14:12 | 43.50972 | -4.48845 | 37901 ft | 469 kts | 22° |
| 2026-05-07 14:13 | 43.56965 | -4.45231 | 37902 ft | 470 kts | 21° |
| 2026-05-07 14:13 | 43.62969 | -4.41603 | 37909 ft | 471 kts | 21° |
| 2026-05-07 14:14 | 43.68980 | -4.37962 | 37902 ft | 470 kts | 22° |
| 2026-05-07 14:14 | 43.74985 | -4.34318 | 37912 ft | 470 kts | 22° |
| 2026-05-07 14:15 | 43.80954 | -4.30687 | 37906 ft | 471 kts | 21° |
| 2026-05-07 14:15 | 43.86975 | -4.27016 | 37909 ft | 471 kts | 21° |
| 2026-05-07 14:16 | 43.92985 | -4.23344 | 37912 ft | 472 kts | 21° |
| 2026-05-07 14:16 | 43.98986 | -4.19670 | 37924 ft | 471 kts | 22° |
| 2026-05-07 14:17 | 44.04890 | -4.16047 | 37921 ft | 472 kts | 22° |
| 2026-05-07 14:17 | 44.10859 | -4.12376 | 37917 ft | 471 kts | 22° |
| 2026-05-07 14:18 | 44.16839 | -4.08691 | 37922 ft | 471 kts | 22° |
| 2026-05-07 14:18 | 44.22776 | -4.05023 | 37924 ft | 470 kts | 22° |
| 2026-05-07 14:19 | 44.28759 | -4.01319 | 37927 ft | 469 kts | 22° |
| 2026-05-07 14:19 | 44.34727 | -3.97644 | 37928 ft | 469 kts | 20° |
| 2026-05-07 14:20 | 44.40797 | -3.94305 | 37930 ft | 468 kts | 19° |
| 2026-05-07 14:20 | 44.46826 | -3.91031 | 37928 ft | 468 kts | 19° |
| 2026-05-07 14:21 | 44.52892 | -3.87681 | 37932 ft | 468 kts | 20° |
| 2026-05-07 14:21 | 44.58949 | -3.84311 | 37939 ft | 468 kts | 20° |
| 2026-05-07 14:22 | 44.64978 | -3.80948 | 37931 ft | 469 kts | 20° |
| 2026-05-07 14:22 | 44.71043 | -3.77558 | 37941 ft | 469 kts | 20° |